createdAt,value
2019-04-26T00:01:23.497Z,31.50
2019-04-26T00:03:53.662Z,40.70
2019-04-26T00:06:24.384Z,38.83
2019-04-26T00:09:03.634Z,33.50
2019-04-26T00:12:04.027Z,40.20
2019-04-26T00:14:42.788Z,36.33
2019-04-26T00:17:17.578Z,35.77
2019-04-26T00:19:48.201Z,34.93
2019-04-26T00:22:19.163Z,34.80
2019-04-26T00:24:49.611Z,45.10
2019-04-26T00:27:20.017Z,36.93
2019-04-26T00:29:50.321Z,33.33
2019-04-26T00:32:21.369Z,39.90
2019-04-26T00:34:51.709Z,37.80
2019-04-26T00:37:22.504Z,37.00
2019-04-26T00:39:52.842Z,37.30
2019-04-26T00:42:23.989Z,36.53
2019-04-26T00:44:55.094Z,36.43
2019-04-26T00:47:27.226Z,33.47
2019-04-26T00:49:58.599Z,36.07
2019-04-26T00:52:29.716Z,39.43
2019-04-26T00:55:01.441Z,36.03
2019-04-26T00:57:33.261Z,39.63
2019-04-26T01:00:04.931Z,38.97
2019-04-26T01:02:40.582Z,31.50
2019-04-26T01:05:10.800Z,36.77
2019-04-26T01:07:42.538Z,37.97
2019-04-26T01:10:12.599Z,42.30
2019-04-26T01:12:42.761Z,31.77
2019-04-26T01:15:15.768Z,35.63
2019-04-26T01:17:45.119Z,39.87
2019-04-26T01:20:17.850Z,38.43
2019-04-26T01:22:51.141Z,32.93
2019-04-26T01:25:52.497Z,34.53
2019-04-26T01:28:35.249Z,37.40
2019-04-26T01:31:07.598Z,38.10
2019-04-26T01:33:39.785Z,36.70
2019-04-26T01:36:13.282Z,34.07
2019-04-26T01:38:43.181Z,36.67
2019-04-26T01:41:21.319Z,35.83
2019-04-26T01:44:14.353Z,40.93
2019-04-26T01:46:46.466Z,34.73
2019-04-26T01:49:20.831Z,40.03
2019-04-26T01:52:06.726Z,34.60
2019-04-26T01:54:41.396Z,35.03
2019-04-26T01:57:12.825Z,35.80
2019-04-26T01:59:47.022Z,36.20
2019-04-26T02:02:35.230Z,32.87
2019-04-26T02:05:10.029Z,36.33
2019-04-26T02:07:40.892Z,34.87
2019-04-26T02:10:13.433Z,38.70
2019-04-26T02:12:46.673Z,32.30
2019-04-26T02:15:19.290Z,42.93
2019-04-26T02:17:50.910Z,34.73
2019-04-26T02:20:51.633Z,35.60
2019-04-26T02:23:27.932Z,37.23
2019-04-26T02:25:59.739Z,37.00
2019-04-26T02:28:30.369Z,39.70
2019-04-26T02:31:01.141Z,34.23
2019-04-26T02:33:33.301Z,36.67
2019-04-26T02:36:03.347Z,34.93
2019-04-26T02:38:34.657Z,38.23
2019-04-26T02:41:05.234Z,38.87
2019-04-26T02:43:37.225Z,33.13
2019-04-26T02:46:23.244Z,40.47
2019-04-26T02:49:19.286Z,37.33
2019-04-26T02:51:57.670Z,36.17
2019-04-26T02:54:47.305Z,43.60
2019-04-26T02:57:38.893Z,34.07
2019-04-26T03:00:12.617Z,40.33
2019-04-26T03:02:43.792Z,36.13
2019-04-26T03:05:14.180Z,42.37
2019-04-26T03:08:07.865Z,40.53
2019-04-26T03:11:01.887Z,40.57
2019-04-26T03:13:43.566Z,37.03
2019-04-26T03:16:37.270Z,36.87
2019-04-26T03:19:34.075Z,38.67
2019-04-26T03:22:35.693Z,40.93
2019-04-26T03:25:23.654Z,38.07
2019-04-26T03:28:00.774Z,35.53
2019-04-26T03:30:52.395Z,37.07
2019-04-26T03:33:49.958Z,48.13
2019-04-26T03:36:49.151Z,45.77
2019-04-26T03:39:36.268Z,43.37
2019-04-26T03:42:47.788Z,48.67
2019-04-26T03:45:30.698Z,40.60
2019-04-26T03:48:15.839Z,43.60
2019-04-26T03:50:55.661Z,43.20
2019-04-26T03:53:43.874Z,46.53
2019-04-26T03:56:52.205Z,47.23
2019-04-26T04:00:04.012Z,44.70
2019-04-26T04:02:54.347Z,40.10
2019-04-26T04:05:35.993Z,49.20
2019-04-26T04:08:10.657Z,48.13
2019-04-26T04:10:47.679Z,52.53
2019-04-26T04:13:43.285Z,48.13
2019-04-26T04:16:47.371Z,49.57
2019-04-26T04:19:57.329Z,37.03
2019-04-26T04:22:32.103Z,46.67
2019-04-26T04:25:05.533Z,50.13
2019-04-26T04:27:41.839Z,46.40
2019-04-26T04:30:42.237Z,47.13
2019-04-26T04:33:27.893Z,44.23
2019-04-26T04:36:03.908Z,38.87
2019-04-26T04:39:12.563Z,40.60
2019-04-26T04:42:04.531Z,38.07
2019-04-26T04:45:41.722Z,39.07
2019-04-26T04:48:41.173Z,38.20
2019-04-26T04:51:35.009Z,39.83
2019-04-26T04:54:18.746Z,40.27
2019-04-26T04:57:39.080Z,34.73
2019-04-26T05:00:43.067Z,38.00
2019-04-26T05:03:34.135Z,29.43
2019-04-26T05:06:29.665Z,38.77
2019-04-26T05:09:18.161Z,33.73
2019-04-26T05:12:22.745Z,42.57
2019-04-26T05:15:15.982Z,36.43
2019-04-26T05:17:58.306Z,41.77
2019-04-26T05:20:53.329Z,39.10
2019-04-26T05:24:14.955Z,47.97
2019-04-26T05:27:27.189Z,38.73
2019-04-26T05:30:43.083Z,34.47
2019-04-26T05:33:47.769Z,41.50
2019-04-26T05:36:31.207Z,44.77
2019-04-26T05:39:11.616Z,37.77
2019-04-26T05:42:09.919Z,33.80
2019-04-26T05:45:08.025Z,39.13
2019-04-26T05:48:09.295Z,39.47
2019-04-26T05:51:09.269Z,39.83
2019-04-26T05:54:19.913Z,39.73
2019-04-26T05:57:19.130Z,46.30
2019-04-26T06:00:32.211Z,41.63
2019-04-26T06:03:49.673Z,37.03
2019-04-26T06:06:28.645Z,34.97
2019-04-26T06:09:28.744Z,39.93
2019-04-26T06:12:18.177Z,38.80
2019-04-26T06:15:13.913Z,42.23
2019-04-26T06:18:18.210Z,40.87
2019-04-26T06:21:10.460Z,36.47
2019-04-26T06:23:49.134Z,32.07
2019-04-26T06:27:13.038Z,37.87
2019-04-26T06:29:46.378Z,37.30
2019-04-26T06:32:56.099Z,41.00
2019-04-26T06:35:21.304Z,33.43
2019-04-26T06:38:18.165Z,43.07
2019-04-26T06:41:29.586Z,38.27
2019-04-26T06:44:04.770Z,49.00
2019-04-26T06:46:57.984Z,32.73
2019-04-26T06:50:03.400Z,36.03
2019-04-26T06:52:37.232Z,34.50
2019-04-26T06:55:30.072Z,30.83
2019-04-26T06:58:42.698Z,32.70
2019-04-26T07:01:42.442Z,30.43
2019-04-26T07:04:39.042Z,30.67
2019-04-26T07:07:34.506Z,30.40
2019-04-26T07:10:16.068Z,28.03
2019-04-26T07:13:01.112Z,33.43
2019-04-26T07:15:58.325Z,32.17
2019-04-26T07:18:52.310Z,30.73
2019-04-26T07:21:40.722Z,33.87
2019-04-26T07:25:07.232Z,36.10
2019-04-26T07:27:49.214Z,46.23
2019-04-26T07:31:10.150Z,36.87
2019-04-26T07:34:13.959Z,38.53
2019-04-26T07:37:19.794Z,41.13
2019-04-26T07:40:31.371Z,45.50
2019-04-26T07:43:40.063Z,32.67
2019-04-26T07:47:09.414Z,39.10
2019-04-26T07:50:15.255Z,38.97
2019-04-26T07:53:07.413Z,39.90
2019-04-26T07:55:45.562Z,28.77
2019-04-26T07:59:12.768Z,25.53
2019-04-26T08:02:14.043Z,29.33
2019-04-26T08:04:52.434Z,33.67
2019-04-26T08:07:25.582Z,35.27
2019-04-26T08:10:07.841Z,32.20
2019-04-26T08:12:41.156Z,31.67
2019-04-26T08:15:27.850Z,32.13
2019-04-26T08:18:13.745Z,28.73
2019-04-26T08:20:52.698Z,26.13
2019-04-26T08:23:41.731Z,30.07
2019-04-26T08:26:13.456Z,30.23
2019-04-26T08:28:50.479Z,27.17
2019-04-26T08:31:25.604Z,29.47
2019-04-26T08:34:02.930Z,31.73
2019-04-26T08:36:57.392Z,27.27
2019-04-26T08:39:44.449Z,29.87
2019-04-26T08:42:04.999Z,26.03
2019-04-26T08:44:56.697Z,27.80
2019-04-26T08:47:40.849Z,28.43
2019-04-26T08:50:17.752Z,26.87
2019-04-26T08:52:51.116Z,21.93
2019-04-26T08:55:21.759Z,26.50
2019-04-26T08:57:54.998Z,29.90
2019-04-26T09:01:04.788Z,28.53
2019-04-26T09:03:41.458Z,34.37
2019-04-26T09:06:20.294Z,24.33
2019-04-26T09:08:52.789Z,24.97
2019-04-26T09:11:30.191Z,26.70
2019-04-26T09:13:58.881Z,20.70
2019-04-26T09:16:29.247Z,23.83
2019-04-26T09:18:59.906Z,23.17
2019-04-26T09:21:54.042Z,23.10
2019-04-26T09:24:30.059Z,21.30
2019-04-26T09:27:08.616Z,19.33
2019-04-26T09:30:00.590Z,28.47
2019-04-26T09:32:36.542Z,36.40
2019-04-26T09:35:06.954Z,21.87
2019-04-26T09:37:37.305Z,26.97
2019-04-26T09:40:10.471Z,21.40
2019-04-26T09:43:04.762Z,23.47
2019-04-26T09:45:56.841Z,28.03
2019-04-26T09:48:48.733Z,25.80
2019-04-26T09:51:18.980Z,20.07
2019-04-26T09:53:49.116Z,29.13
2019-04-26T09:56:19.393Z,23.37
2019-04-26T09:58:49.663Z,20.90
2019-04-26T10:01:24.127Z,22.70
2019-04-26T10:03:51.798Z,24.32
2019-04-26T10:06:26.076Z,20.30
2019-04-26T10:08:55.146Z,23.43
2019-04-26T10:11:28.080Z,20.67
2019-04-26T10:14:04.167Z,26.17
2019-04-26T10:16:42.375Z,23.30
2019-04-26T10:19:15.111Z,21.68
2019-04-26T10:21:45.675Z,21.73
2019-04-26T10:24:15.920Z,27.10
2019-04-26T10:26:46.230Z,18.67
2019-04-26T10:29:16.397Z,19.30
2019-04-26T10:31:47.577Z,17.13
2019-04-26T10:34:18.450Z,19.20
2019-04-26T10:36:48.633Z,17.70
2019-04-26T10:39:19.210Z,17.23
2019-04-26T10:41:49.426Z,16.33
2019-04-26T10:44:19.723Z,16.32
2019-04-26T10:46:55.793Z,17.05
2019-04-26T10:49:43.498Z,17.70
2019-04-26T10:52:28.668Z,18.32
2019-04-26T10:55:15.983Z,13.10
2019-04-26T10:57:45.566Z,13.77
2019-04-26T11:00:24.310Z,15.70
2019-04-26T11:02:54.375Z,12.63
2019-04-26T11:05:25.682Z,16.77
2019-04-26T11:07:55.782Z,19.02
2019-04-26T11:10:26.226Z,18.32
2019-04-26T11:12:56.335Z,19.25
2019-04-26T11:15:29.060Z,18.30
2019-04-26T11:17:58.526Z,20.62
2019-04-26T11:20:28.676Z,17.85
2019-04-26T11:22:58.849Z,20.57
2019-04-26T11:25:29.510Z,16.62
2019-04-26T11:28:01.039Z,16.17
2019-04-26T11:30:31.175Z,15.03
2019-04-26T11:33:01.406Z,18.67
2019-04-26T11:35:33.281Z,15.95
2019-04-26T11:38:03.558Z,22.55
2019-04-26T11:40:33.762Z,23.80
2019-04-26T11:43:04.326Z,18.30
2019-04-26T11:45:34.494Z,14.55
2019-04-26T11:48:05.653Z,19.62
2019-04-26T11:50:35.722Z,20.92
2019-04-26T11:53:06.144Z,17.65
2019-04-26T11:55:38.848Z,18.20
2019-04-26T11:58:09.035Z,19.50
2019-04-26T12:00:43.793Z,17.42
2019-04-26T12:03:13.902Z,20.65
2019-04-26T12:05:53.122Z,13.83
2019-04-26T12:08:32.182Z,15.95
2019-04-26T12:11:02.415Z,21.67
2019-04-26T12:13:32.681Z,18.10
2019-04-26T12:16:02.894Z,15.55
2019-04-26T12:18:33.084Z,17.65
2019-04-26T12:21:03.475Z,18.27
2019-04-26T12:23:33.770Z,26.07
2019-04-26T12:26:03.980Z,12.50
2019-04-26T12:28:36.384Z,17.35
2019-04-26T12:31:06.090Z,16.42
2019-04-26T12:33:39.095Z,17.32
2019-04-26T12:36:09.471Z,13.68
2019-04-26T12:38:40.269Z,29.52
2019-04-26T12:41:11.649Z,14.65
2019-04-26T12:43:41.998Z,22.50
2019-04-26T12:46:31.858Z,16.30
2019-04-26T12:49:01.073Z,16.30
2019-04-26T12:51:31.217Z,16.40
2019-04-26T12:54:03.773Z,15.20
2019-04-26T12:56:34.523Z,20.10
2019-04-26T12:59:04.675Z,17.23
2019-04-26T13:01:34.999Z,13.22
2019-04-26T13:04:06.262Z,12.60
2019-04-26T13:06:42.134Z,10.72
2019-04-26T13:09:17.423Z,14.75
2019-04-26T13:11:59.458Z,17.70
2019-04-26T13:14:54.471Z,9.75
2019-04-26T13:17:31.439Z,18.20
2019-04-26T13:20:02.206Z,14.70
2019-04-26T13:22:45.423Z,16.02
2019-04-26T13:25:15.305Z,19.48
2019-04-26T13:27:41.674Z,16.90
2019-04-26T13:30:11.953Z,17.90
2019-04-26T13:32:42.366Z,17.12
2019-04-26T13:35:13.047Z,23.42
2019-04-26T13:37:44.760Z,21.33
2019-04-26T13:40:15.196Z,16.02
2019-04-26T13:42:47.394Z,14.38
2019-04-26T13:45:42.214Z,12.98
2019-04-26T13:48:45.305Z,19.23
2019-04-26T13:51:17.409Z,18.82
2019-04-26T13:53:47.527Z,15.63
2019-04-26T13:56:17.732Z,20.80
2019-04-26T13:58:47.839Z,22.22
2019-04-26T14:01:18.674Z,15.90
2019-04-26T14:03:49.963Z,23.12
2019-04-26T14:06:20.182Z,14.43
2019-04-26T14:08:53.920Z,20.17
2019-04-26T14:11:28.148Z,17.87
2019-04-26T14:13:55.436Z,18.60
2019-04-26T14:16:27.510Z,24.77
2019-04-26T14:18:57.793Z,18.87
2019-04-26T14:21:29.264Z,24.83
2019-04-26T14:24:36.807Z,23.75
2019-04-26T14:27:14.903Z,17.57
2019-04-26T14:29:43.074Z,18.57
2019-04-26T14:32:13.361Z,19.00
2019-04-26T14:34:45.242Z,20.72
2019-04-26T14:37:16.710Z,21.70
2019-04-26T14:39:50.835Z,20.05
2019-04-26T14:42:32.946Z,21.30
2019-04-26T14:44:53.025Z,30.53
2019-04-26T14:47:26.319Z,22.30
2019-04-26T14:49:57.767Z,23.33
2019-04-26T14:52:27.793Z,21.60
2019-04-26T14:54:59.157Z,15.17
2019-04-26T14:57:31.660Z,21.83
2019-04-26T15:00:02.087Z,20.27
2019-04-26T15:02:56.091Z,20.67
2019-04-26T15:05:45.178Z,25.83
2019-04-26T15:08:14.048Z,18.80
2019-04-26T15:10:48.611Z,19.00
2019-04-26T15:13:20.736Z,20.57
2019-04-26T15:15:49.234Z,18.50
2019-04-26T15:18:19.466Z,17.97
2019-04-26T15:20:53.267Z,19.47
2019-04-26T15:23:23.927Z,17.17
2019-04-26T15:25:54.557Z,17.33
2019-04-26T15:28:24.758Z,27.57
2019-04-26T15:30:54.911Z,20.03
2019-04-26T15:33:25.170Z,20.07
2019-04-26T15:35:55.357Z,16.17
2019-04-26T15:38:26.627Z,21.90
2019-04-26T15:41:18.775Z,22.57
2019-04-26T15:44:02.834Z,27.67
2019-04-26T15:46:50.947Z,24.97
2019-04-26T15:49:35.902Z,15.10
2019-04-26T15:52:02.014Z,17.50
2019-04-26T15:54:32.460Z,21.73
2019-04-26T15:57:02.823Z,22.10
2019-04-26T15:59:34.061Z,22.67
2019-04-26T16:02:04.349Z,21.80
2019-04-26T16:04:34.422Z,21.17
2019-04-26T16:07:05.862Z,20.60
2019-04-26T16:09:37.031Z,23.93
2019-04-26T16:12:07.174Z,22.03
2019-04-26T16:14:37.518Z,21.00
2019-04-26T16:17:07.715Z,24.17
2019-04-26T16:19:37.970Z,19.17
2019-04-26T16:22:08.123Z,20.67
2019-04-26T16:24:38.318Z,28.70
2019-04-26T16:27:08.453Z,22.43
2019-04-26T16:29:50.848Z,25.80
2019-04-26T16:32:37.967Z,24.03
2019-04-26T16:35:08.149Z,20.17
2019-04-26T16:37:38.528Z,22.13
2019-04-26T16:40:12.395Z,29.73
2019-04-26T16:42:40.887Z,20.87
2019-04-26T16:45:12.342Z,23.03
2019-04-26T16:47:48.572Z,21.93
2019-04-26T16:50:23.194Z,23.50
2019-04-26T16:52:47.967Z,21.07
2019-04-26T16:55:21.125Z,24.30
2019-04-26T17:00:43.150Z,27.57
2019-04-26T17:00:47.112Z,21.87
2019-04-26T17:03:02.506Z,30.07
2019-04-26T17:05:46.921Z,24.73
2019-04-26T17:08:04.157Z,24.67
2019-04-26T17:10:32.485Z,21.87
2019-04-26T17:13:03.154Z,22.47
2019-04-26T17:15:34.537Z,29.47
2019-04-26T17:18:05.043Z,19.87
2019-04-26T17:20:35.350Z,21.37
2019-04-26T17:23:16.666Z,22.33
2019-04-26T17:26:08.010Z,18.87
2019-04-26T17:28:38.309Z,23.83
2019-04-26T17:31:08.554Z,19.17
2019-04-26T17:33:38.778Z,27.40
2019-04-26T17:36:11.412Z,23.50
2019-04-26T17:38:42.065Z,27.93
2019-04-26T17:41:13.823Z,24.63
2019-04-26T17:43:47.680Z,21.67
2019-04-26T17:46:18.272Z,19.00
2019-04-26T17:48:49.770Z,18.30
2019-04-26T17:51:23.102Z,23.27
2019-04-26T17:54:20.336Z,20.90
2019-04-26T17:56:26.077Z,18.47
2019-04-26T17:58:56.585Z,32.70
2019-04-26T18:01:42.075Z,26.17
2019-04-26T18:04:00.206Z,28.97
2019-04-26T18:06:30.550Z,28.77
2019-04-26T18:09:00.712Z,29.33
2019-04-26T18:11:33.006Z,34.73
2019-04-26T18:14:06.897Z,29.87
2019-04-26T18:16:38.051Z,35.03
2019-04-26T18:19:30.464Z,27.63
2019-04-26T18:22:19.884Z,31.93
2019-04-26T18:24:50.106Z,31.23
2019-04-26T18:27:20.290Z,30.47
2019-04-26T18:29:50.559Z,28.23
2019-04-26T18:32:21.319Z,24.10
2019-04-26T18:34:51.562Z,26.90
2019-04-26T18:37:23.133Z,33.73
2019-04-26T18:39:53.550Z,33.57
2019-04-26T18:42:27.064Z,31.27
2019-04-26T18:44:57.881Z,42.23
2019-04-26T18:47:32.607Z,34.60
2019-04-26T18:50:02.895Z,36.73
2019-04-26T18:52:37.228Z,35.07
2019-04-26T18:55:30.172Z,29.43
2019-04-26T18:58:03.378Z,41.43
2019-04-26T19:00:36.642Z,31.70
2019-04-26T19:03:06.946Z,35.07
2019-04-26T19:05:37.238Z,33.87
2019-04-26T19:08:09.704Z,40.50
2019-04-26T19:10:40.510Z,34.07
2019-04-26T19:13:36.535Z,38.87
2019-04-26T19:16:16.729Z,36.33
2019-04-26T19:18:51.793Z,33.33
2019-04-26T19:21:27.517Z,35.33
2019-04-26T19:24:05.769Z,56.83
2019-04-26T19:26:34.884Z,38.07
2019-04-26T19:29:09.952Z,43.87
2019-04-26T19:31:34.842Z,48.47
2019-04-26T19:34:05.286Z,45.57
2019-04-26T19:36:36.751Z,50.57
2019-04-26T19:39:07.878Z,58.07
2019-04-26T19:41:39.946Z,73.70
2019-04-26T19:44:18.893Z,54.37
2019-04-26T19:47:06.900Z,50.97
2019-04-26T19:49:52.356Z,57.43
2019-04-26T19:52:44.730Z,39.60
2019-04-26T19:55:32.323Z,45.20
2019-04-26T19:58:16.125Z,38.13
2019-04-26T20:00:48.641Z,45.70
2019-04-26T20:03:18.922Z,38.20
2019-04-26T20:05:49.094Z,47.73
2019-04-26T20:08:19.257Z,47.97
2019-04-26T20:10:49.531Z,47.37
2019-04-26T20:13:19.877Z,41.33
2019-04-26T20:15:52.798Z,45.60
2019-04-26T20:18:22.059Z,38.57
2019-04-26T20:20:53.311Z,43.33
2019-04-26T20:23:24.606Z,41.53
2019-04-26T20:25:54.940Z,40.60
2019-04-26T20:28:29.738Z,40.73
2019-04-26T20:31:20.294Z,37.77
2019-04-26T20:33:50.736Z,46.30
2019-04-26T20:36:21.661Z,43.60
2019-04-26T20:38:53.025Z,42.77
2019-04-26T20:41:23.501Z,41.63
2019-04-26T20:44:05.107Z,40.80
2019-04-26T20:46:29.608Z,41.30
2019-04-26T20:48:57.643Z,39.17
2019-04-26T20:51:29.807Z,39.27
2019-04-26T20:53:59.982Z,45.40
2019-04-26T20:56:31.722Z,30.90
2019-04-26T20:59:02.051Z,32.27
2019-04-26T21:01:32.530Z,34.93
2019-04-26T21:04:02.686Z,36.03
2019-04-26T21:06:33.875Z,39.43
2019-04-26T21:09:07.583Z,37.60
2019-04-26T21:11:39.239Z,43.43
2019-04-26T21:14:09.428Z,39.93
2019-04-26T21:16:43.680Z,38.20
2019-04-26T21:19:12.811Z,38.93
2019-04-26T21:21:48.385Z,34.43
2019-04-26T21:24:19.649Z,43.20
2019-04-26T21:27:05.194Z,38.83
2019-04-26T21:30:10.397Z,38.97
2019-04-26T21:33:03.033Z,44.53
2019-04-26T21:35:46.908Z,38.10
2019-04-26T21:38:25.576Z,39.50
2019-04-26T21:41:04.375Z,44.77
2019-04-26T21:43:34.786Z,34.70
2019-04-26T21:46:08.405Z,46.93
2019-04-26T21:48:41.849Z,52.93
2019-04-26T21:51:14.555Z,47.53
2019-04-26T21:53:43.146Z,43.53
2019-04-26T21:56:14.767Z,44.13
2019-04-26T21:58:46.105Z,47.53
2019-04-26T22:01:21.022Z,48.80
2019-04-26T22:03:55.141Z,45.33
2019-04-26T22:06:25.090Z,57.53
2019-04-26T22:09:14.067Z,48.27
2019-04-26T22:11:44.470Z,48.40
2019-04-26T22:14:23.495Z,47.40
2019-04-26T22:17:27.768Z,44.27
2019-04-26T22:20:35.169Z,48.47
2019-04-26T22:23:30.409Z,45.47
2019-04-26T22:26:04.971Z,48.80
2019-04-26T22:28:36.071Z,51.70
2019-04-26T22:31:08.324Z,51.93
2019-04-26T22:33:36.267Z,49.27
2019-04-26T22:36:06.461Z,43.73
2019-04-26T22:38:37.950Z,46.37
2019-04-26T22:41:08.182Z,42.43
2019-04-26T22:43:55.997Z,50.03
2019-04-26T22:46:47.022Z,43.40
2019-04-26T22:49:14.923Z,48.70
2019-04-26T22:51:44.976Z,43.17
2019-04-26T22:54:15.189Z,51.03
2019-04-26T22:56:46.047Z,40.50
2019-04-26T22:59:16.410Z,46.23
2019-04-26T23:01:48.621Z,44.87
2019-04-26T23:04:23.730Z,46.73
2019-04-26T23:06:50.417Z,44.00
2019-04-26T23:09:20.769Z,44.10
2019-04-26T23:12:00.290Z,43.10
2019-04-26T23:14:52.117Z,37.93
2019-04-26T23:17:31.436Z,47.80
2019-04-26T23:20:17.438Z,51.70
2019-04-26T23:22:47.626Z,49.20
2019-04-26T23:25:17.819Z,52.63
2019-04-26T23:27:50.451Z,42.87
2019-04-26T23:30:19.943Z,48.17
2019-04-26T23:32:52.289Z,54.80
2019-04-26T23:35:22.086Z,49.97
2019-04-26T23:37:52.202Z,50.27
2019-04-26T23:40:25.763Z,43.23
2019-04-26T23:42:54.560Z,46.97
2019-04-26T23:45:24.723Z,52.47
2019-04-26T23:47:54.901Z,45.73
2019-04-26T23:50:25.616Z,43.63
2019-04-26T23:52:56.859Z,40.67
2019-04-26T23:55:27.019Z,47.27
2019-04-26T23:57:57.153Z,49.07
